sensor_id;sensor_type;location;lat;lon;timestamp;pressure;altitude;pressure_sealevel;temperature;humidity
3434;BME280;1730;41.932;25.548;2024-01-25T00:01:25;100420.78;;;2.67;100.00
3434;BME280;1730;41.932;25.548;2024-01-25T00:03:51;100284.22;;;1.97;100.00
3434;BME280;1730;41.932;25.548;2024-01-25T00:06:16;100287.19;;;1.91;100.00
3434;BME280;1730;41.932;25.548;2024-01-25T00:08:42;100426.41;;;2.79;100.00
3434;BME280;1730;41.932;25.548;2024-01-25T00:11:07;100421.00;;;2.80;100.00
3434;BME280;1730;41.932;25.548;2024-01-25T00:13:34;100391.62;;;2.64;100.00
3434;BME280;1730;41.932;25.548;2024-01-25T00:16:00;99888.97;;;-0.42;100.00
3434;BME280;1730;41.932;25.548;2024-01-25T00:18:25;100252.38;;;1.78;100.00
3434;BME280;1730;41.932;25.548;2024-01-25T00:20:51;100394.97;;;2.51;100.00
3434;BME280;1730;41.932;25.548;2024-01-25T00:23:17;100276.06;;;1.83;100.00
3434;BME280;1730;41.932;25.548;2024-01-25T00:25:42;99900.63;;;-0.27;100.00
3434;BME280;1730;41.932;25.548;2024-01-25T00:28:08;100413.25;;;2.76;100.00
3434;BME280;1730;41.932;25.548;2024-01-25T00:30:33;100378.88;;;2.71;100.00
3434;BME280;1730;41.932;25.548;2024-01-25T00:32:59;100365.63;;;2.69;100.00
3434;BME280;1730;41.932;25.548;2024-01-25T00:35:25;100410.25;;;2.82;100.00
3434;BME280;1730;41.932;25.548;2024-01-25T00:37:51;100315.63;;;2.59;100.00
3434;BME280;1730;41.932;25.548;2024-01-25T00:40:17;100311.22;;;2.58;100.00
3434;BME280;1730;41.932;25.548;2024-01-25T00:42:45;99945.66;;;0.46;100.00
3434;BME280;1730;41.932;25.548;2024-01-25T00:45:21;100331.09;;;2.68;100.00
3434;BME280;1730;41.932;25.548;2024-01-25T00:47:47;100327.97;;;2.60;100.00
3434;BME280;1730;41.932;25.548;2024-01-25T00:50:13;100313.50;;;2.31;100.00
3434;BME280;1730;41.932;25.548;2024-01-25T00:52:39;100330.41;;;2.47;100.00
3434;BME280;1730;41.932;25.548;2024-01-25T00:55:05;100172.84;;;1.56;100.00
3434;BME280;1730;41.932;25.548;2024-01-25T00:57:31;100356.63;;;2.72;100.00
3434;BME280;1730;41.932;25.548;2024-01-25T00:59:58;100331.72;;;2.56;100.00
3434;BME280;1730;41.932;25.548;2024-01-25T01:02:24;100333.50;;;2.72;100.00
3434;BME280;1730;41.932;25.548;2024-01-25T01:04:56;100328.13;;;2.74;100.00
3434;BME280;1730;41.932;25.548;2024-01-25T01:07:22;100072.28;;;1.49;100.00
3434;BME280;1730;41.932;25.548;2024-01-25T01:09:47;100256.47;;;2.69;100.00
3434;BME280;1730;41.932;25.548;2024-01-25T01:12:13;99935.53;;;0.88;100.00
3434;BME280;1730;41.932;25.548;2024-01-25T01:14:39;100087.19;;;1.68;100.00
3434;BME280;1730;41.932;25.548;2024-01-25T01:17:04;100222.34;;;2.60;100.00
3434;BME280;1730;41.932;25.548;2024-01-25T01:19:31;99974.00;;;0.97;100.00
3434;BME280;1730;41.932;25.548;2024-01-25T01:21:56;100212.31;;;2.65;100.00
3434;BME280;1730;41.932;25.548;2024-01-25T01:24:22;100027.00;;;1.50;100.00
3434;BME280;1730;41.932;25.548;2024-01-25T01:26:47;100243.06;;;2.38;100.00
3434;BME280;1730;41.932;25.548;2024-01-25T01:29:14;100184.47;;;2.55;100.00
3434;BME280;1730;41.932;25.548;2024-01-25T01:31:39;99552.22;;;-1.20;100.00
3434;BME280;1730;41.932;25.548;2024-01-25T01:34:05;100169.34;;;2.40;100.00
3434;BME280;1730;41.932;25.548;2024-01-25T01:36:30;99857.81;;;0.52;100.00
3434;BME280;1730;41.932;25.548;2024-01-25T01:38:56;100183.16;;;2.47;100.00
3434;BME280;1730;41.932;25.548;2024-01-25T01:41:21;100002.91;;;1.20;100.00
3434;BME280;1730;41.932;25.548;2024-01-25T01:43:47;100174.50;;;2.43;100.00
3434;BME280;1730;41.932;25.548;2024-01-25T01:46:25;99887.53;;;0.59;100.00
3434;BME280;1730;41.932;25.548;2024-01-25T01:48:54;100179.41;;;2.18;100.00
3434;BME280;1730;41.932;25.548;2024-01-25T01:51:20;100222.47;;;2.59;100.00
3434;BME280;1730;41.932;25.548;2024-01-25T01:53:45;100225.19;;;2.57;100.00
3434;BME280;1730;41.932;25.548;2024-01-25T01:56:12;99467.13;;;-1.82;100.00
3434;BME280;1730;41.932;25.548;2024-01-25T01:58:38;100206.00;;;2.51;100.00
3434;BME280;1730;41.932;25.548;2024-01-25T02:01:04;100204.66;;;2.59;100.00
3434;BME280;1730;41.932;25.548;2024-01-25T02:03:30;100280.91;;;2.60;100.00
3434;BME280;1730;41.932;25.548;2024-01-25T02:05:55;99996.91;;;1.00;100.00
3434;BME280;1730;41.932;25.548;2024-01-25T02:08:24;99496.13;;;-1.80;100.00
3434;BME280;1730;41.932;25.548;2024-01-25T02:10:50;100200.22;;;2.27;100.00
3434;BME280;1730;41.932;25.548;2024-01-25T02:13:16;100224.63;;;2.51;100.00
3434;BME280;1730;41.932;25.548;2024-01-25T02:15:42;100084.00;;;1.62;100.00
3434;BME280;1730;41.932;25.548;2024-01-25T02:18:07;100226.59;;;2.47;100.00
3434;BME280;1730;41.932;25.548;2024-01-25T02:20:33;100227.47;;;2.81;100.00
3434;BME280;1730;41.932;25.548;2024-01-25T02:22:58;100183.59;;;2.39;100.00
3434;BME280;1730;41.932;25.548;2024-01-25T02:25:24;100226.97;;;2.41;100.00
3434;BME280;1730;41.932;25.548;2024-01-25T02:27:49;100197.03;;;2.53;100.00
3434;BME280;1730;41.932;25.548;2024-01-25T02:30:15;100159.47;;;2.42;100.00
3434;BME280;1730;41.932;25.548;2024-01-25T02:32:42;99952.47;;;0.52;100.00
3434;BME280;1730;41.932;25.548;2024-01-25T02:35:08;99884.34;;;0.69;100.00
3434;BME280;1730;41.932;25.548;2024-01-25T02:37:34;100173.44;;;2.30;100.00
3434;BME280;1730;41.932;25.548;2024-01-25T02:39:59;100092.97;;;1.59;100.00
3434;BME280;1730;41.932;25.548;2024-01-25T02:42:25;100196.97;;;2.86;100.00
3434;BME280;1730;41.932;25.548;2024-01-25T02:44:50;99448.44;;;-2.14;100.00
3434;BME280;1730;41.932;25.548;2024-01-25T02:47:16;99998.12;;;1.10;100.00
3434;BME280;1730;41.932;25.548;2024-01-25T02:49:42;100171.44;;;2.18;100.00
3434;BME280;1730;41.932;25.548;2024-01-25T02:52:07;99767.72;;;-0.18;100.00
3434;BME280;1730;41.932;25.548;2024-01-25T02:54:35;99891.97;;;0.58;100.00
3434;BME280;1730;41.932;25.548;2024-01-25T02:57:02;100176.03;;;2.47;100.00
3434;BME280;1730;41.932;25.548;2024-01-25T02:59:28;100161.31;;;2.24;100.00
3434;BME280;1730;41.932;25.548;2024-01-25T03:01:54;99867.25;;;0.58;100.00
3434;BME280;1730;41.932;25.548;2024-01-25T03:04:20;100156.84;;;2.58;100.00
3434;BME280;1730;41.932;25.548;2024-01-25T03:06:45;100165.50;;;2.28;100.00
3434;BME280;1730;41.932;25.548;2024-01-25T03:09:11;100131.72;;;2.31;100.00
3434;BME280;1730;41.932;25.548;2024-01-25T03:11:36;100132.59;;;2.31;100.00
3434;BME280;1730;41.932;25.548;2024-01-25T03:14:02;100148.19;;;2.54;100.00
3434;BME280;1730;41.932;25.548;2024-01-25T03:16:27;100032.81;;;1.91;100.00
3434;BME280;1730;41.932;25.548;2024-01-25T03:18:53;99937.53;;;1.51;100.00
3434;BME280;1730;41.932;25.548;2024-01-25T03:21:19;100054.44;;;2.01;100.00
3434;BME280;1730;41.932;25.548;2024-01-25T03:23:44;99735.53;;;0.24;100.00
3434;BME280;1730;41.932;25.548;2024-01-25T03:26:10;100106.94;;;2.46;100.00
3434;BME280;1730;41.932;25.548;2024-01-25T03:28:35;100109.00;;;2.41;100.00
3434;BME280;1730;41.932;25.548;2024-01-25T03:31:01;99902.13;;;1.34;100.00
3434;BME280;1730;41.932;25.548;2024-01-25T03:33:27;99797.44;;;0.23;100.00
3434;BME280;1730;41.932;25.548;2024-01-25T03:35:53;99696.66;;;0.07;100.00
3434;BME280;1730;41.932;25.548;2024-01-25T03:38:19;99739.31;;;0.35;100.00
3434;BME280;1730;41.932;25.548;2024-01-25T03:40:44;100065.62;;;2.23;100.00
3434;BME280;1730;41.932;25.548;2024-01-25T03:43:10;100072.06;;;2.19;100.00
3434;BME280;1730;41.932;25.548;2024-01-25T03:45:35;100080.47;;;1.94;100.00
3434;BME280;1730;41.932;25.548;2024-01-25T03:48:01;99805.84;;;0.31;100.00
3434;BME280;1730;41.932;25.548;2024-01-25T03:50:27;100109.50;;;1.99;100.00
3434;BME280;1730;41.932;25.548;2024-01-25T03:52:52;100108.59;;;1.83;100.00
3434;BME280;1730;41.932;25.548;2024-01-25T03:55:18;100128.69;;;1.88;100.00
3434;BME280;1730;41.932;25.548;2024-01-25T03:57:44;100029.56;;;1.36;100.00
3434;BME280;1730;41.932;25.548;2024-01-25T04:00:10;100139.75;;;2.13;100.00
3434;BME280;1730;41.932;25.548;2024-01-25T04:02:36;100196.63;;;1.76;100.00
3434;BME280;1730;41.932;25.548;2024-01-25T04:05:02;100028.28;;;1.09;100.00
3434;BME280;1730;41.932;25.548;2024-01-25T04:07:28;100159.31;;;1.95;100.00
3434;BME280;1730;41.932;25.548;2024-01-25T04:09:53;99566.22;;;-1.92;100.00
3434;BME280;1730;41.932;25.548;2024-01-25T04:12:19;100157.75;;;1.91;100.00
3434;BME280;1730;41.932;25.548;2024-01-25T04:14:44;100004.88;;;1.00;100.00
3434;BME280;1730;41.932;25.548;2024-01-25T04:17:10;100003.37;;;1.28;100.00
3434;BME280;1730;41.932;25.548;2024-01-25T04:19:36;100164.19;;;2.20;100.00
3434;BME280;1730;41.932;25.548;2024-01-25T04:22:02;100172.06;;;2.39;100.00
3434;BME280;1730;41.932;25.548;2024-01-25T04:24:27;100161.53;;;2.20;100.00
3434;BME280;1730;41.932;25.548;2024-01-25T04:26:53;100113.78;;;2.34;100.00
3434;BME280;1730;41.932;25.548;2024-01-25T04:29:18;100098.37;;;1.58;100.00
3434;BME280;1730;41.932;25.548;2024-01-25T04:31:45;100027.13;;;1.49;100.00
3434;BME280;1730;41.932;25.548;2024-01-25T04:34:12;100120.09;;;1.83;100.00
3434;BME280;1730;41.932;25.548;2024-01-25T04:36:38;100144.41;;;1.93;100.00
3434;BME280;1730;41.932;25.548;2024-01-25T04:39:04;100082.44;;;1.58;100.00
3434;BME280;1730;41.932;25.548;2024-01-25T04:41:29;99929.28;;;0.55;100.00
3434;BME280;1730;41.932;25.548;2024-01-25T04:43:55;100012.50;;;1.23;100.00
3434;BME280;1730;41.932;25.548;2024-01-25T04:46:20;99615.13;;;-1.83;100.00
3434;BME280;1730;41.932;25.548;2024-01-25T04:48:46;100147.19;;;1.90;100.00
3434;BME280;1730;41.932;25.548;2024-01-25T04:51:16;100021.03;;;1.12;100.00
3434;BME280;1730;41.932;25.548;2024-01-25T04:53:42;100130.09;;;1.61;100.00
3434;BME280;1730;41.932;25.548;2024-01-25T04:56:07;100177.72;;;1.83;100.00
3434;BME280;1730;41.932;25.548;2024-01-25T04:58:33;99989.06;;;0.79;100.00
3434;BME280;1730;41.932;25.548;2024-01-25T05:00:58;99894.91;;;-0.18;100.00
3434;BME280;1730;41.932;25.548;2024-01-25T05:03:27;99790.88;;;-0.58;100.00
3434;BME280;1730;41.932;25.548;2024-01-25T05:05:52;100167.84;;;1.50;100.00
3434;BME280;1730;41.932;25.548;2024-01-25T05:08:18;100014.03;;;0.75;100.00
3434;BME280;1730;41.932;25.548;2024-01-25T05:10:44;99892.59;;;-0.07;100.00
3434;BME280;1730;41.932;25.548;2024-01-25T05:13:09;100239.59;;;1.67;100.00
3434;BME280;1730;41.932;25.548;2024-01-25T05:15:35;99983.84;;;0.61;100.00
3434;BME280;1730;41.932;25.548;2024-01-25T05:18:01;99976.75;;;0.61;100.00
3434;BME280;1730;41.932;25.548;2024-01-25T05:20:27;99947.63;;;0.60;100.00
3434;BME280;1730;41.932;25.548;2024-01-25T05:23:01;100165.03;;;1.00;100.00
3434;BME280;1730;41.932;25.548;2024-01-25T05:25:28;100202.97;;;2.08;100.00
3434;BME280;1730;41.932;25.548;2024-01-25T05:27:54;99884.88;;;0.24;100.00
3434;BME280;1730;41.932;25.548;2024-01-25T05:30:21;100176.44;;;1.90;100.00
3434;BME280;1730;41.932;25.548;2024-01-25T05:32:47;99785.69;;;-0.42;100.00
3434;BME280;1730;41.932;25.548;2024-01-25T05:35:15;99920.28;;;0.05;100.00
3434;BME280;1730;41.932;25.548;2024-01-25T05:37:41;100174.09;;;2.01;100.00
3434;BME280;1730;41.932;25.548;2024-01-25T05:40:07;100124.44;;;1.67;100.00
3434;BME280;1730;41.932;25.548;2024-01-25T05:42:34;100020.09;;;1.13;100.00
3434;BME280;1730;41.932;25.548;2024-01-25T05:45:00;100150.19;;;2.01;100.00
3434;BME280;1730;41.932;25.548;2024-01-25T05:47:25;99986.22;;;1.18;100.00
3434;BME280;1730;41.932;25.548;2024-01-25T05:49:51;100130.69;;;2.00;100.00
3434;BME280;1730;41.932;25.548;2024-01-25T05:52:17;100120.75;;;2.04;100.00
3434;BME280;1730;41.932;25.548;2024-01-25T05:54:42;99860.69;;;0.65;100.00
3434;BME280;1730;41.932;25.548;2024-01-25T05:57:09;100126.66;;;2.26;100.00
3434;BME280;1730;41.932;25.548;2024-01-25T05:59:35;99825.91;;;0.54;100.00
3434;BME280;1730;41.932;25.548;2024-01-25T06:02:00;99873.56;;;0.72;100.00
3434;BME280;1730;41.932;25.548;2024-01-25T06:07:17;100070.97;;;2.39;100.00
3434;BME280;1730;41.932;25.548;2024-01-25T06:09:43;100100.00;;;2.75;100.00
3434;BME280;1730;41.932;25.548;2024-01-25T06:12:08;99963.41;;;2.11;100.00
3434;BME280;1730;41.932;25.548;2024-01-25T06:14:34;100063.03;;;3.00;100.00
3434;BME280;1730;41.932;25.548;2024-01-25T06:16:59;100032.41;;;2.77;100.00
3434;BME280;1730;41.932;25.548;2024-01-25T06:19:25;99891.22;;;1.88;100.00
3434;BME280;1730;41.932;25.548;2024-01-25T06:21:50;100042.38;;;3.19;100.00
3434;BME280;1730;41.932;25.548;2024-01-25T06:24:16;100014.22;;;2.99;100.00
3434;BME280;1730;41.932;25.548;2024-01-25T06:26:42;99851.06;;;2.38;100.00
3434;BME280;1730;41.932;25.548;2024-01-25T06:29:07;99978.47;;;3.03;100.00
3434;BME280;1730;41.932;25.548;2024-01-25T06:31:33;99950.41;;;3.42;100.00
3434;BME280;1730;41.932;25.548;2024-01-25T06:34:04;99920.53;;;3.51;100.00
3434;BME280;1730;41.932;25.548;2024-01-25T06:36:30;99903.34;;;3.83;100.00
3434;BME280;1730;41.932;25.548;2024-01-25T06:38:55;99589.47;;;1.95;100.00
3434;BME280;1730;41.932;25.548;2024-01-25T06:41:21;99847.56;;;3.66;100.00
3434;BME280;1730;41.932;25.548;2024-01-25T06:43:47;99851.00;;;3.68;100.00
3434;BME280;1730;41.932;25.548;2024-01-25T06:46:13;99703.53;;;3.27;100.00
3434;BME280;1730;41.932;25.548;2024-01-25T06:48:38;99635.16;;;2.72;100.00
3434;BME280;1730;41.932;25.548;2024-01-25T06:51:04;99790.47;;;3.83;100.00
3434;BME280;1730;41.932;25.548;2024-01-25T06:53:29;99648.75;;;3.08;100.00
3434;BME280;1730;41.932;25.548;2024-01-25T06:55:55;99055.25;;;-0.50;100.00
3434;BME280;1730;41.932;25.548;2024-01-25T06:58:20;99646.41;;;3.04;100.00
3434;BME280;1730;41.932;25.548;2024-01-25T07:00:46;99794.53;;;3.88;100.00
3434;BME280;1730;41.932;25.548;2024-01-25T07:03:13;99798.47;;;4.09;100.00
3434;BME280;1730;41.932;25.548;2024-01-25T07:05:41;99753.97;;;4.10;100.00
3434;BME280;1730;41.932;25.548;2024-01-25T07:08:06;99791.84;;;4.54;100.00
3434;BME280;1730;41.932;25.548;2024-01-25T07:10:34;99799.78;;;4.81;100.00
3434;BME280;1730;41.932;25.548;2024-01-25T07:13:00;99551.66;;;3.27;100.00
3434;BME280;1730;41.932;25.548;2024-01-25T07:15:25;99742.41;;;3.97;100.00
3434;BME280;1730;41.932;25.548;2024-01-25T07:17:51;99747.41;;;3.62;100.00
3434;BME280;1730;41.932;25.548;2024-01-25T07:20:17;99467.81;;;2.12;100.00
3434;BME280;1730;41.932;25.548;2024-01-25T07:22:42;99458.31;;;2.22;100.00
3434;BME280;1730;41.932;25.548;2024-01-25T07:25:08;99575.50;;;3.15;100.00
3434;BME280;1730;41.932;25.548;2024-01-25T07:27:34;99782.13;;;4.53;100.00
3434;BME280;1730;41.932;25.548;2024-01-25T07:30:01;99813.72;;;5.35;100.00
3434;BME280;1730;41.932;25.548;2024-01-25T07:32:26;99808.19;;;5.75;100.00
3434;BME280;1730;41.932;25.548;2024-01-25T07:34:52;99789.13;;;6.51;100.00
3434;BME280;1730;41.932;25.548;2024-01-25T07:37:18;99346.56;;;4.58;100.00
3434;BME280;1730;41.932;25.548;2024-01-25T07:39:44;99461.31;;;6.09;100.00
3434;BME280;1730;41.932;25.548;2024-01-25T07:42:10;99665.31;;;8.09;100.00
3434;BME280;1730;41.932;25.548;2024-01-25T07:44:36;99608.19;;;8.49;100.00
3434;BME280;1730;41.932;25.548;2024-01-25T07:47:02;99557.53;;;8.84;100.00
3434;BME280;1730;41.932;25.548;2024-01-25T07:49:29;99522.50;;;9.24;100.00
3434;BME280;1730;41.932;25.548;2024-01-25T07:51:54;99466.50;;;9.57;100.00
3434;BME280;1730;41.932;25.548;2024-01-25T07:54:22;99293.38;;;8.73;100.00
3434;BME280;1730;41.932;25.548;2024-01-25T07:56:48;99386.75;;;8.21;100.00
3434;BME280;1730;41.932;25.548;2024-01-25T07:59:14;99396.31;;;8.44;100.00
3434;BME280;1730;41.932;25.548;2024-01-25T08:01:39;98943.84;;;6.39;100.00
3434;BME280;1730;41.932;25.548;2024-01-25T08:04:05;99222.78;;;8.51;100.00
3434;BME280;1730;41.932;25.548;2024-01-25T08:06:31;99370.53;;;9.75;100.00
3434;BME280;1730;41.932;25.548;2024-01-25T08:08:57;99321.50;;;9.81;100.00
3434;BME280;1730;41.932;25.548;2024-01-25T08:11:24;99238.91;;;9.72;100.00
3434;BME280;1730;41.932;25.548;2024-01-25T08:13:49;99343.28;;;10.77;100.00
3434;BME280;1730;41.932;25.548;2024-01-25T08:16:15;99122.88;;;8.09;100.00
3434;BME280;1730;41.932;25.548;2024-01-25T08:18:50;99331.91;;;9.29;100.00
3434;BME280;1730;41.932;25.548;2024-01-25T08:21:15;99203.19;;;8.32;100.00
3434;BME280;1730;41.932;25.548;2024-01-25T08:23:41;99186.78;;;8.15;100.00
3434;BME280;1730;41.932;25.548;2024-01-25T08:26:07;99345.50;;;9.18;100.00
3434;BME280;1730;41.932;25.548;2024-01-25T08:28:42;99345.06;;;9.69;100.00
3434;BME280;1730;41.932;25.548;2024-01-25T08:31:10;99199.63;;;8.97;100.00
3434;BME280;1730;41.932;25.548;2024-01-25T08:33:36;99349.66;;;10.14;100.00
3434;BME280;1730;41.932;25.548;2024-01-25T08:36:02;99338.94;;;10.49;100.00
3434;BME280;1730;41.932;25.548;2024-01-25T08:38:28;99313.53;;;10.87;100.00
3434;BME280;1730;41.932;25.548;2024-01-25T08:40:54;99299.50;;;10.83;100.00
3434;BME280;1730;41.932;25.548;2024-01-25T08:43:19;99281.72;;;10.99;100.00
3434;BME280;1730;41.932;25.548;2024-01-25T08:45:45;99328.13;;;11.28;100.00
3434;BME280;1730;41.932;25.548;2024-01-25T08:48:11;99263.34;;;11.28;100.00
3434;BME280;1730;41.932;25.548;2024-01-25T08:50:38;98850.56;;;9.44;100.00
3434;BME280;1730;41.932;25.548;2024-01-25T08:53:04;98954.75;;;10.29;100.00
3434;BME280;1730;41.932;25.548;2024-01-25T08:55:31;98951.06;;;10.38;100.00
3434;BME280;1730;41.932;25.548;2024-01-25T08:57:56;99083.94;;;11.48;100.00
3434;BME280;1730;41.932;25.548;2024-01-25T09:00:22;99243.66;;;12.52;100.00
3434;BME280;1730;41.932;25.548;2024-01-25T09:02:48;99225.06;;;12.81;100.00
3434;BME280;1730;41.932;25.548;2024-01-25T09:05:13;98967.50;;;11.27;100.00
3434;BME280;1730;41.932;25.548;2024-01-25T09:07:40;98927.16;;;11.34;100.00
3434;BME280;1730;41.932;25.548;2024-01-25T09:10:07;99237.91;;;12.87;100.00
3434;BME280;1730;41.932;25.548;2024-01-25T09:12:34;99182.47;;;12.75;100.00
3434;BME280;1730;41.932;25.548;2024-01-25T09:15:00;99089.72;;;12.26;100.00
3434;BME280;1730;41.932;25.548;2024-01-25T09:17:26;98839.62;;;10.71;100.00
3434;BME280;1730;41.932;25.548;2024-01-25T09:19:51;99174.66;;;12.88;100.00
3434;BME280;1730;41.932;25.548;2024-01-25T09:22:17;99070.28;;;12.31;100.00
3434;BME280;1730;41.932;25.548;2024-01-25T09:24:48;99085.50;;;12.40;100.00
3434;BME280;1730;41.932;25.548;2024-01-25T09:27:14;99157.59;;;12.80;100.00
3434;BME280;1730;41.932;25.548;2024-01-25T09:29:40;99059.12;;;12.34;100.00
3434;BME280;1730;41.932;25.548;2024-01-25T09:32:07;99064.69;;;12.40;100.00
3434;BME280;1730;41.932;25.548;2024-01-25T09:34:36;99170.87;;;13.05;100.00
3434;BME280;1730;41.932;25.548;2024-01-25T09:37:08;98902.19;;;11.48;100.00
3434;BME280;1730;41.932;25.548;2024-01-25T09:39:35;99215.19;;;13.29;100.00
3434;BME280;1730;41.932;25.548;2024-01-25T09:42:02;99166.28;;;13.22;100.00
3434;BME280;1730;41.932;25.548;2024-01-25T09:44:28;98745.09;;;10.65;100.00
3434;BME280;1730;41.932;25.548;2024-01-25T09:46:54;98917.84;;;11.68;100.00
3434;BME280;1730;41.932;25.548;2024-01-25T09:49:30;98969.69;;;11.88;100.00
3434;BME280;1730;41.932;25.548;2024-01-25T09:52:19;99172.53;;;13.31;100.00
3434;BME280;1730;41.932;25.548;2024-01-25T09:54:53;99152.41;;;13.25;100.00
3434;BME280;1730;41.932;25.548;2024-01-25T09:57:22;99191.88;;;13.20;100.00
3434;BME280;1730;41.932;25.548;2024-01-25T09:59:50;99162.41;;;13.25;100.00
3434;BME280;1730;41.932;25.548;2024-01-25T10:02:21;99107.56;;;12.59;100.00
3434;BME280;1730;41.932;25.548;2024-01-25T10:04:51;98922.75;;;11.81;100.00
3434;BME280;1730;41.932;25.548;2024-01-25T10:25:25;99172.03;;;13.27;100.00
3434;BME280;1730;41.932;25.548;2024-01-25T10:27:50;99000.81;;;12.39;100.00
3434;BME280;1730;41.932;25.548;2024-01-25T10:30:36;99190.19;;;13.11;100.00
3434;BME280;1730;41.932;25.548;2024-01-25T10:33:03;99174.62;;;13.13;100.00
3434;BME280;1730;41.932;25.548;2024-01-25T10:35:38;99184.06;;;13.17;100.00
3434;BME280;1730;41.932;25.548;2024-01-25T10:43:08;99146.69;;;13.20;100.00
3434;BME280;1730;41.932;25.548;2024-01-25T10:45:35;98998.84;;;12.17;100.00
3434;BME280;1730;41.932;25.548;2024-01-25T10:51:09;98731.59;;;10.65;100.00
3434;BME280;1730;41.932;25.548;2024-01-25T10:53:39;99124.03;;;13.05;100.00
3434;BME280;1730;41.932;25.548;2024-01-25T10:56:16;99098.72;;;12.90;100.00
3434;BME280;1730;41.932;25.548;2024-01-25T10:58:46;99114.09;;;12.81;100.00
3434;BME280;1730;41.932;25.548;2024-01-25T11:01:12;99164.72;;;13.36;100.00
3434;BME280;1730;41.932;25.548;2024-01-25T11:03:47;99133.69;;;13.46;100.00
3434;BME280;1730;41.932;25.548;2024-01-25T11:06:17;99123.81;;;13.23;100.00
3434;BME280;1730;41.932;25.548;2024-01-25T11:08:46;99132.47;;;13.18;100.00
3434;BME280;1730;41.932;25.548;2024-01-25T11:11:13;99140.75;;;13.25;100.00
3434;BME280;1730;41.932;25.548;2024-01-25T11:13:43;99110.28;;;13.53;100.00
3434;BME280;1730;41.932;25.548;2024-01-25T11:16:47;99110.91;;;13.64;100.00
3434;BME280;1730;41.932;25.548;2024-01-25T11:19:21;98705.59;;;11.04;100.00
3434;BME280;1730;41.932;25.548;2024-01-25T11:21:50;99124.50;;;13.78;100.00
3434;BME280;1730;41.932;25.548;2024-01-25T11:24:28;99116.53;;;13.85;100.00
3434;BME280;1730;41.932;25.548;2024-01-25T11:26:57;99120.09;;;13.85;100.00
3434;BME280;1730;41.932;25.548;2024-01-25T11:29:23;99037.75;;;13.64;100.00
3434;BME280;1730;41.932;25.548;2024-01-25T11:31:51;99112.66;;;14.02;100.00
3434;BME280;1730;41.932;25.548;2024-01-25T11:34:43;99044.72;;;12.96;100.00
3434;BME280;1730;41.932;25.548;2024-01-25T11:37:59;98365.03;;;8.33;100.00
3434;BME280;1730;41.932;25.548;2024-01-25T11:40:29;99206.41;;;13.19;100.00
3434;BME280;1730;41.932;25.548;2024-01-25T11:42:57;99139.63;;;12.95;100.00
3434;BME280;1730;41.932;25.548;2024-01-25T11:45:23;98979.56;;;12.28;100.00
3434;BME280;1730;41.932;25.548;2024-01-25T11:47:49;99179.56;;;13.48;100.00
3434;BME280;1730;41.932;25.548;2024-01-25T11:50:15;99162.16;;;13.42;100.00
3434;BME280;1730;41.932;25.548;2024-01-25T11:52:40;99142.31;;;13.50;100.00
3434;BME280;1730;41.932;25.548;2024-01-25T11:55:08;98997.53;;;12.60;100.00
3434;BME280;1730;41.932;25.548;2024-01-25T11:57:39;98905.00;;;11.95;100.00
3434;BME280;1730;41.932;25.548;2024-01-25T12:00:22;99105.75;;;12.99;100.00
3434;BME280;1730;41.932;25.548;2024-01-25T12:02:52;98613.50;;;9.71;100.00
3434;BME280;1730;41.932;25.548;2024-01-25T12:05:18;98996.00;;;11.94;100.00
3434;BME280;1730;41.932;25.548;2024-01-25T12:13:52;98416.34;;;8.30;100.00
3434;BME280;1730;41.932;25.548;2024-01-25T12:31:21;99135.34;;;13.56;95.08
3434;BME280;1730;41.932;25.548;2024-01-25T12:33:46;99131.84;;;13.70;95.03
3434;BME280;1730;41.932;25.548;2024-01-25T12:36:12;99084.84;;;13.32;93.64
3434;BME280;1730;41.932;25.548;2024-01-25T12:41:17;99136.69;;;13.82;94.58
3434;BME280;1730;41.932;25.548;2024-01-25T12:43:45;99135.28;;;13.64;91.60
3434;BME280;1730;41.932;25.548;2024-01-25T12:46:10;98565.88;;;9.80;90.37
3434;BME280;1730;41.932;25.548;2024-01-25T12:48:40;99124.34;;;13.10;92.89
3434;BME280;1730;41.932;25.548;2024-01-25T12:51:05;99148.34;;;13.21;95.12
3434;BME280;1730;41.932;25.548;2024-01-25T12:53:31;98617.22;;;9.94;97.26
3434;BME280;1730;41.932;25.548;2024-01-25T12:58:55;99118.31;;;12.92;99.40
3434;BME280;1730;41.932;25.548;2024-01-25T13:01:22;99138.81;;;12.78;100.00
3434;BME280;1730;41.932;25.548;2024-01-25T13:03:48;99100.00;;;12.39;100.00
3434;BME280;1730;41.932;25.548;2024-01-25T13:06:18;99149.72;;;12.46;100.00
3434;BME280;1730;41.932;25.548;2024-01-25T13:08:44;98634.59;;;8.92;100.00
3434;BME280;1730;41.932;25.548;2024-01-25T13:11:11;98775.78;;;10.06;100.00
3434;BME280;1730;41.932;25.548;2024-01-25T13:13:39;99156.28;;;12.43;100.00
3434;BME280;1730;41.932;25.548;2024-01-25T13:21:18;99163.56;;;12.35;100.00
3434;BME280;1730;41.932;25.548;2024-01-25T13:26:11;99167.63;;;12.39;100.00
3434;BME280;1730;41.932;25.548;2024-01-25T13:31:14;99173.72;;;12.33;100.00
3434;BME280;1730;41.932;25.548;2024-01-25T13:33:39;99163.75;;;12.41;100.00
3434;BME280;1730;41.932;25.548;2024-01-25T13:36:05;99173.72;;;12.41;100.00
3434;BME280;1730;41.932;25.548;2024-01-25T13:44:03;99163.22;;;12.22;100.00
3434;BME280;1730;41.932;25.548;2024-01-25T13:54:37;99164.72;;;12.16;100.00
3434;BME280;1730;41.932;25.548;2024-01-25T13:57:06;99146.00;;;12.14;100.00
3434;BME280;1730;41.932;25.548;2024-01-25T14:00:04;99154.44;;;12.11;100.00
3434;BME280;1730;41.932;25.548;2024-01-25T14:13:14;99110.53;;;12.09;100.00
3434;BME280;1730;41.932;25.548;2024-01-25T14:15:40;99043.94;;;11.68;100.00
3434;BME280;1730;41.932;25.548;2024-01-25T14:18:07;99115.06;;;12.09;100.00
3434;BME280;1730;41.932;25.548;2024-01-25T14:20:32;99070.94;;;11.68;100.00
3434;BME280;1730;41.932;25.548;2024-01-25T14:23:05;99123.69;;;12.12;100.00
3434;BME280;1730;41.932;25.548;2024-01-25T14:25:46;99123.19;;;12.17;100.00
3434;BME280;1730;41.932;25.548;2024-01-25T14:41:46;99135.84;;;12.08;100.00
3434;BME280;1730;41.932;25.548;2024-01-25T14:44:15;99137.03;;;12.06;100.00
3434;BME280;1730;41.932;25.548;2024-01-25T14:46:41;99170.81;;;12.02;100.00